createdAt,value
2023-02-08T00:01:20.404Z,56.10
2023-02-08T00:03:46.911Z,55.80
2023-02-08T00:06:13.432Z,55.80
2023-02-08T00:08:39.916Z,56.50
2023-02-08T00:11:06.423Z,55.90
2023-02-08T00:13:32.916Z,55.70
2023-02-08T00:15:59.434Z,55.80
2023-02-08T00:18:25.921Z,55.90
2023-02-08T00:20:52.411Z,55.90
2023-02-08T00:23:18.903Z,55.60
2023-02-08T00:25:45.395Z,55.90
2023-02-08T00:28:11.926Z,55.70
2023-02-08T00:30:38.624Z,55.70
2023-02-08T00:33:05.228Z,55.70
2023-02-08T00:35:31.731Z,55.70
2023-02-08T00:37:58.214Z,55.50
2023-02-08T00:40:24.729Z,55.60
2023-02-08T00:42:51.226Z,55.50
2023-02-08T00:45:17.727Z,55.50
2023-02-08T00:47:44.203Z,55.40
2023-02-08T00:50:10.726Z,55.50
2023-02-08T00:52:37.209Z,55.20
2023-02-08T00:55:03.704Z,55.40
2023-02-08T00:57:30.186Z,55.40
2023-02-08T00:59:56.674Z,55.60
2023-02-08T01:02:23.185Z,55.60
2023-02-08T01:04:49.662Z,55.50
2023-02-08T01:07:16.131Z,55.50
2023-02-08T01:09:42.589Z,55.60
2023-02-08T01:12:09.019Z,55.30
2023-02-08T01:14:35.454Z,55.50
2023-02-08T01:17:01.938Z,55.60
2023-02-08T01:19:28.412Z,55.30
2023-02-08T01:21:54.892Z,55.40
2023-02-08T01:24:21.378Z,55.40
2023-02-08T01:26:47.858Z,55.20
2023-02-08T01:29:14.329Z,55.10
2023-02-08T01:31:40.852Z,55.10
2023-02-08T01:34:07.464Z,55.10
2023-02-08T01:36:33.956Z,55.00
2023-02-08T01:39:05.244Z,55.00
2023-02-08T01:41:31.749Z,55.30
2023-02-08T01:43:58.263Z,55.30
2023-02-08T01:46:24.753Z,55.20
2023-02-08T01:48:51.220Z,54.90
2023-02-08T01:51:17.698Z,55.00
2023-02-08T01:53:44.160Z,54.90
2023-02-08T01:56:10.633Z,55.00
2023-02-08T01:58:37.108Z,54.90
2023-02-08T02:01:03.612Z,54.80
2023-02-08T02:03:30.097Z,55.00
2023-02-08T02:05:56.583Z,55.10
2023-02-08T02:08:26.069Z,55.10
2023-02-08T02:10:52.523Z,55.00
2023-02-08T02:13:19.028Z,55.00
2023-02-08T02:15:45.513Z,54.90
2023-02-08T02:18:11.983Z,54.80
2023-02-08T02:20:38.457Z,54.80
2023-02-08T02:23:04.953Z,54.80
2023-02-08T02:25:31.440Z,54.80
2023-02-08T02:27:57.913Z,54.40
2023-02-08T02:30:24.434Z,54.80
2023-02-08T02:32:50.899Z,54.80
2023-02-08T02:35:17.400Z,54.90
2023-02-08T02:37:47.095Z,54.90
2023-02-08T02:40:13.576Z,54.90
2023-02-08T02:42:40.028Z,54.80
2023-02-08T02:45:06.491Z,54.70
2023-02-08T02:47:32.974Z,54.50
2023-02-08T02:49:59.451Z,54.60
2023-02-08T02:52:25.939Z,54.50
2023-02-08T02:54:52.412Z,54.80
2023-02-08T02:57:18.888Z,54.50
2023-02-08T02:59:45.362Z,54.50
2023-02-08T03:02:11.833Z,54.30
2023-02-08T03:04:38.317Z,54.60
2023-02-08T03:07:04.789Z,54.50
2023-02-08T03:09:31.255Z,54.40
2023-02-08T03:11:57.728Z,54.20
2023-02-08T03:14:24.202Z,54.50
2023-02-08T03:16:50.693Z,54.20
2023-02-08T03:19:17.204Z,54.40
2023-02-08T03:21:43.711Z,54.40
2023-02-08T03:24:10.189Z,54.40
2023-02-08T03:26:36.682Z,54.40
2023-02-08T03:29:03.168Z,54.40
2023-02-08T03:31:29.871Z,54.30
2023-02-08T03:33:56.392Z,54.30
2023-02-08T03:36:22.858Z,54.40
2023-02-08T03:38:49.341Z,54.50
2023-02-08T03:41:15.828Z,54.30
2023-02-08T03:43:42.304Z,54.30
2023-02-08T03:46:08.892Z,54.20
2023-02-08T03:48:35.378Z,54.40
2023-02-08T03:51:01.873Z,54.20
2023-02-08T03:53:28.334Z,54.20
2023-02-08T03:55:54.798Z,54.20
2023-02-08T03:58:21.276Z,54.10
2023-02-08T04:00:47.755Z,53.80
2023-02-08T04:03:14.234Z,53.90
2023-02-08T04:05:40.716Z,54.90
2023-02-08T04:08:07.174Z,54.20
2023-02-08T04:10:33.676Z,53.90
2023-02-08T04:13:00.160Z,54.00
2023-02-08T04:15:26.656Z,54.00
2023-02-08T04:17:53.135Z,53.80
2023-02-08T04:20:19.615Z,53.90
2023-02-08T04:22:46.086Z,54.00
2023-02-08T04:25:12.571Z,53.80
2023-02-08T04:27:39.067Z,53.80
2023-02-08T04:30:05.556Z,53.80
2023-02-08T04:32:32.039Z,53.80
2023-02-08T04:34:58.528Z,53.90
2023-02-08T04:37:25.027Z,53.70
2023-02-08T04:39:51.499Z,53.70
2023-02-08T04:42:17.994Z,53.80
2023-02-08T04:44:44.455Z,53.40
2023-02-08T04:47:10.971Z,53.80
2023-02-08T04:49:37.442Z,53.50
2023-02-08T04:52:03.925Z,53.40
2023-02-08T04:54:30.378Z,53.40
2023-02-08T04:56:56.875Z,53.70
2023-02-08T04:59:23.346Z,53.50
2023-02-08T05:01:49.867Z,53.40
2023-02-08T05:04:16.328Z,53.60
2023-02-08T05:06:42.814Z,53.50
2023-02-08T05:09:09.280Z,53.50
2023-02-08T05:11:35.775Z,53.60
2023-02-08T05:14:02.237Z,53.30
2023-02-08T05:16:28.734Z,53.60
2023-02-08T05:18:55.205Z,53.40
2023-02-08T05:21:21.668Z,53.30
2023-02-08T05:23:48.140Z,53.20
2023-02-08T05:26:14.619Z,53.30
2023-02-08T05:28:41.113Z,53.10
2023-02-08T05:31:07.932Z,53.40
2023-02-08T05:33:34.482Z,53.20
2023-02-08T05:36:00.955Z,53.00
2023-02-08T05:38:27.432Z,53.40
2023-02-08T05:40:53.875Z,53.20
2023-02-08T05:43:20.356Z,53.30
2023-02-08T05:45:46.824Z,53.20
2023-02-08T05:48:13.297Z,53.30
2023-02-08T05:50:40.023Z,53.10
2023-02-08T05:53:06.705Z,53.40
2023-02-08T05:55:33.178Z,53.00
2023-02-08T05:57:59.639Z,53.10
2023-02-08T06:00:26.100Z,53.20
2023-02-08T06:02:52.622Z,53.30
2023-02-08T06:05:19.132Z,53.00
2023-02-08T06:07:45.606Z,53.10
2023-02-08T06:10:12.082Z,52.90
2023-02-08T06:12:38.564Z,52.70
2023-02-08T06:15:05.034Z,52.90
2023-02-08T06:17:31.507Z,53.20
2023-02-08T06:19:57.976Z,52.90
2023-02-08T06:22:24.430Z,52.70
2023-02-08T06:24:50.899Z,53.10
2023-02-08T06:27:17.382Z,52.80
2023-02-08T06:29:43.918Z,53.00
2023-02-08T06:32:10.562Z,52.60
2023-02-08T06:34:37.104Z,52.70
2023-02-08T06:37:03.777Z,52.60
2023-02-08T06:39:30.328Z,52.80
2023-02-08T06:41:56.833Z,52.50
2023-02-08T06:44:23.311Z,52.90
2023-02-08T06:46:50.022Z,52.80
2023-02-08T06:49:16.492Z,52.60
2023-02-08T06:51:42.962Z,52.60
2023-02-08T06:54:09.446Z,52.60
2023-02-08T06:56:35.915Z,52.70
2023-02-08T06:59:02.396Z,52.30
2023-02-08T07:01:28.880Z,52.30
2023-02-08T07:03:55.377Z,52.70
2023-02-08T07:06:21.952Z,52.50
2023-02-08T07:08:48.426Z,52.60
2023-02-08T07:11:17.323Z,52.40
2023-02-08T07:13:43.812Z,52.60
2023-02-08T07:16:10.378Z,52.50
2023-02-08T07:18:36.903Z,52.10
2023-02-08T07:21:03.391Z,52.40
2023-02-08T07:23:30.141Z,52.50
2023-02-08T07:25:56.592Z,52.50
2023-02-08T07:28:23.106Z,52.40
2023-02-08T07:30:49.615Z,52.10
2023-02-08T07:33:16.141Z,52.40
2023-02-08T07:35:42.609Z,52.10
2023-02-08T07:38:09.118Z,52.10
2023-02-08T07:40:35.612Z,52.20
2023-02-08T07:43:02.109Z,52.30
2023-02-08T07:45:28.573Z,52.30
2023-02-08T07:47:55.064Z,52.50
2023-02-08T07:50:21.545Z,52.10
2023-02-08T07:52:48.021Z,52.10
2023-02-08T07:55:14.511Z,52.10
2023-02-08T07:57:40.981Z,52.20
2023-02-08T08:00:07.442Z,52.30
2023-02-08T08:02:33.910Z,52.30
2023-02-08T08:05:00.387Z,52.20
2023-02-08T08:07:26.862Z,52.30
2023-02-08T08:09:53.467Z,52.10
2023-02-08T08:12:19.939Z,51.80
2023-02-08T08:14:46.450Z,52.10
2023-02-08T08:17:13.111Z,52.20
2023-02-08T08:19:39.591Z,52.00
2023-02-08T08:22:06.062Z,51.90
2023-02-08T08:24:32.539Z,51.70
2023-02-08T08:26:58.998Z,51.70
2023-02-08T08:29:25.492Z,52.10
2023-02-08T08:31:52.063Z,52.10
2023-02-08T08:34:18.578Z,52.20
2023-02-08T08:36:45.079Z,51.90
2023-02-08T08:39:11.569Z,51.90
2023-02-08T08:41:38.034Z,52.20
2023-02-08T08:44:04.536Z,51.90
2023-02-08T08:46:31.068Z,52.10
2023-02-08T08:48:57.665Z,51.50
2023-02-08T08:51:24.145Z,52.00
2023-02-08T08:53:50.587Z,51.90
2023-02-08T08:56:17.068Z,51.90
2023-02-08T08:58:43.635Z,52.00
2023-02-08T09:01:10.164Z,52.10
2023-02-08T09:03:36.729Z,51.70
2023-02-08T09:06:03.261Z,51.70
2023-02-08T09:08:29.762Z,51.70
2023-02-08T09:10:56.248Z,51.60
2023-02-08T09:13:22.709Z,52.00
2023-02-08T09:15:49.231Z,51.70
2023-02-08T09:18:15.767Z,51.80
2023-02-08T09:20:42.626Z,51.80
2023-02-08T09:23:09.369Z,51.80
2023-02-08T09:25:35.859Z,51.80
2023-02-08T09:28:02.357Z,51.70
2023-02-08T09:30:28.851Z,51.90
2023-02-08T09:32:55.317Z,51.70
2023-02-08T09:35:21.822Z,51.80
2023-02-08T09:37:48.297Z,51.70
2023-02-08T09:40:14.805Z,51.80
2023-02-08T09:42:41.357Z,51.70
2023-02-08T09:45:07.833Z,51.90
2023-02-08T09:47:35.926Z,52.00
2023-02-08T09:50:02.591Z,51.90
2023-02-08T09:52:29.075Z,51.90
2023-02-08T09:54:55.562Z,52.00
2023-02-08T09:57:22.041Z,51.80
2023-02-08T09:59:48.517Z,52.00
2023-02-08T10:02:14.973Z,52.10
2023-02-08T10:04:41.431Z,52.00
2023-02-08T10:07:07.918Z,52.10
2023-02-08T10:09:34.395Z,52.00
2023-02-08T10:12:00.867Z,51.90
2023-02-08T10:14:27.347Z,51.90
2023-02-08T10:16:53.829Z,52.00
2023-02-08T10:19:20.318Z,52.10
2023-02-08T10:21:46.797Z,52.10
2023-02-08T10:24:13.258Z,52.00
2023-02-08T10:26:39.747Z,52.10
2023-02-08T10:29:06.227Z,52.10
2023-02-08T10:31:32.738Z,52.00
2023-02-08T10:33:59.272Z,51.90
2023-02-08T10:36:25.782Z,52.10
2023-02-08T10:38:52.300Z,52.20
2023-02-08T10:41:18.805Z,52.10
2023-02-08T10:43:45.548Z,52.20
2023-02-08T10:46:12.065Z,52.20
2023-02-08T10:48:38.579Z,52.10
2023-02-08T10:51:05.068Z,52.20
2023-02-08T10:53:31.542Z,52.10
2023-02-08T10:55:58.069Z,52.10
2023-02-08T10:58:24.553Z,52.00
2023-02-08T11:00:51.068Z,52.10
2023-02-08T11:03:17.586Z,52.00
2023-02-08T11:05:44.390Z,52.00
2023-02-08T11:08:11.052Z,52.20
2023-02-08T11:10:37.512Z,51.90
2023-02-08T11:13:03.981Z,52.00
2023-02-08T11:15:30.479Z,52.00
2023-02-08T11:17:56.956Z,52.20
2023-02-08T11:20:23.458Z,52.10
2023-02-08T11:22:49.941Z,52.20
2023-02-08T11:25:16.426Z,52.10
2023-02-08T11:27:42.880Z,52.40
2023-02-08T11:30:09.333Z,52.30
2023-02-08T11:32:35.803Z,52.40
2023-02-08T11:35:02.309Z,52.50
2023-02-08T11:37:28.884Z,52.40
2023-02-08T11:39:55.439Z,52.50
2023-02-08T11:42:21.914Z,52.70
2023-02-08T11:44:48.398Z,52.70
2023-02-08T11:47:14.873Z,52.80
2023-02-08T11:49:41.352Z,52.90
2023-02-08T11:52:07.862Z,53.00
2023-02-08T11:54:34.319Z,52.90
2023-02-08T11:57:00.806Z,53.20
2023-02-08T11:59:27.284Z,53.20
2023-02-08T12:01:53.768Z,53.30
2023-02-08T12:04:20.239Z,53.30
2023-02-08T12:06:46.720Z,53.30
2023-02-08T12:09:13.188Z,53.30
2023-02-08T12:11:39.669Z,53.50
2023-02-08T12:14:06.148Z,53.30
2023-02-08T12:16:32.773Z,53.40
2023-02-08T12:18:59.354Z,53.50
2023-02-08T12:21:25.818Z,53.50
2023-02-08T12:23:52.336Z,53.60
2023-02-08T12:26:18.794Z,53.70
2023-02-08T12:28:45.252Z,54.40
2023-02-08T12:31:11.861Z,53.70
2023-02-08T12:33:38.389Z,53.80
2023-02-08T12:36:05.665Z,53.80
2023-02-08T12:38:32.286Z,53.80
2023-02-08T12:40:58.782Z,53.80
2023-02-08T12:43:25.274Z,53.80
2023-02-08T12:45:51.748Z,53.70
2023-02-08T12:48:18.247Z,54.00
2023-02-08T12:50:44.717Z,53.90
2023-02-08T12:53:11.201Z,54.00
2023-02-08T12:55:37.697Z,54.00
2023-02-08T12:58:04.198Z,54.10
2023-02-08T13:00:30.696Z,54.00
2023-02-08T13:02:57.255Z,54.10
2023-02-08T13:05:23.822Z,54.10
2023-02-08T13:07:50.325Z,54.10
2023-02-08T13:10:16.823Z,54.40
2023-02-08T13:12:43.328Z,54.30
2023-02-08T13:15:15.872Z,54.20
2023-02-08T13:17:48.005Z,54.30
2023-02-08T13:20:14.488Z,54.30
2023-02-08T13:22:40.983Z,55.10
2023-02-08T13:25:08.718Z,54.40
2023-02-08T13:27:35.659Z,54.40
2023-02-08T13:30:02.308Z,54.40
2023-02-08T13:32:28.767Z,54.30
2023-02-08T13:34:55.264Z,54.20
2023-02-08T13:37:25.263Z,54.30
2023-02-08T13:39:53.096Z,54.40
2023-02-08T13:42:19.614Z,54.50
2023-02-08T13:44:46.228Z,54.30
2023-02-08T13:47:12.742Z,54.50
2023-02-08T13:49:39.194Z,54.60
2023-02-08T13:52:05.952Z,54.60
2023-02-08T13:54:32.419Z,54.50
2023-02-08T13:56:58.912Z,54.50
2023-02-08T13:59:25.393Z,54.60
2023-02-08T14:01:51.911Z,54.80
2023-02-08T14:04:18.401Z,54.60
2023-02-08T14:06:44.907Z,54.50
2023-02-08T14:09:11.373Z,54.50
2023-02-08T14:11:37.852Z,54.40
2023-02-08T14:14:04.324Z,54.40
2023-02-08T14:16:30.864Z,54.40
2023-02-08T14:18:57.390Z,54.30
2023-02-08T14:21:23.882Z,54.20
2023-02-08T14:23:50.369Z,54.20
2023-02-08T14:26:16.871Z,54.30
2023-02-08T14:28:43.361Z,54.50
2023-02-08T14:31:09.962Z,54.50
2023-02-08T14:33:36.530Z,54.50
2023-02-08T14:36:03.045Z,54.40
2023-02-08T14:38:29.535Z,54.50
2023-02-08T14:40:56.031Z,54.50
2023-02-08T14:43:22.522Z,54.70
2023-02-08T14:45:49.302Z,54.70
2023-02-08T14:48:15.924Z,54.80
2023-02-08T14:50:42.403Z,54.60
2023-02-08T14:53:08.870Z,54.70
2023-02-08T14:55:35.325Z,54.70
2023-02-08T14:58:01.789Z,54.70
2023-02-08T15:00:28.288Z,54.70
2023-02-08T15:02:54.755Z,54.70
2023-02-08T15:05:21.208Z,54.70
2023-02-08T15:07:47.702Z,54.60
2023-02-08T15:10:14.185Z,54.70
2023-02-08T15:12:40.659Z,54.60
2023-02-08T15:15:07.143Z,54.70
2023-02-08T15:17:33.655Z,54.60
2023-02-08T15:20:00.130Z,54.70
2023-02-08T15:22:26.608Z,54.60
2023-02-08T15:24:53.095Z,54.60
2023-02-08T15:27:19.554Z,54.70
2023-02-08T15:29:47.533Z,54.80
2023-02-08T15:32:15.319Z,54.80
2023-02-08T15:34:41.808Z,54.80
2023-02-08T15:37:08.290Z,54.80
2023-02-08T15:39:34.779Z,54.80
2023-02-08T15:42:01.249Z,54.80
2023-02-08T15:44:27.720Z,54.80
2023-02-08T15:49:19.532Z,54.80
2023-02-08T15:51:46.031Z,54.90
2023-02-08T15:54:12.511Z,54.70
2023-02-08T15:56:42.285Z,54.90
2023-02-08T15:59:09.064Z,54.90
2023-02-08T16:01:35.588Z,55.00
2023-02-08T16:04:02.170Z,55.00
2023-02-08T16:06:28.710Z,54.90
2023-02-08T16:08:55.193Z,55.00
2023-02-08T16:11:21.683Z,55.00
2023-02-08T16:13:48.164Z,55.00
2023-02-08T16:16:14.699Z,55.00
2023-02-08T16:18:41.202Z,55.00
2023-02-08T16:21:07.682Z,55.00
2023-02-08T16:23:34.163Z,55.10
2023-02-08T16:26:00.661Z,55.00
2023-02-08T16:28:27.216Z,55.20
2023-02-08T16:30:53.872Z,55.20
2023-02-08T16:33:20.413Z,55.30
2023-02-08T16:35:46.894Z,55.20
2023-02-08T16:38:13.375Z,55.20
2023-02-08T16:40:39.873Z,55.30
2023-02-08T16:43:06.346Z,55.30
2023-02-08T16:45:32.828Z,55.20
2023-02-08T16:48:04.246Z,55.10
2023-02-08T16:50:39.736Z,55.30
2023-02-08T16:53:06.221Z,55.30
2023-02-08T16:55:32.706Z,55.40
2023-02-08T16:57:59.183Z,55.30
2023-02-08T17:00:25.657Z,55.40
2023-02-08T17:02:52.142Z,55.50
2023-02-08T17:05:18.606Z,55.40
2023-02-08T17:07:45.092Z,55.30
2023-02-08T17:10:11.557Z,55.30
2023-02-08T17:12:38.050Z,55.40
2023-02-08T17:15:04.535Z,55.30
2023-02-08T17:17:31.010Z,55.90
2023-02-08T17:19:57.469Z,55.40
2023-02-08T17:22:23.951Z,55.30
2023-02-08T17:24:50.425Z,55.30
2023-02-08T17:27:16.923Z,55.50
2023-02-08T17:29:43.411Z,55.40
2023-02-08T17:32:09.910Z,55.30
2023-02-08T17:34:36.381Z,55.40
2023-02-08T17:37:02.882Z,55.30
2023-02-08T17:39:29.381Z,55.30
2023-02-08T17:41:55.854Z,55.30
2023-02-08T17:44:22.330Z,55.40
2023-02-08T17:46:48.799Z,55.30
2023-02-08T17:49:15.269Z,55.30
2023-02-08T17:51:41.737Z,55.30
2023-02-08T17:54:08.218Z,55.30
2023-02-08T17:56:34.662Z,55.30
2023-02-08T17:59:01.139Z,55.10
2023-02-08T18:01:27.663Z,55.10
2023-02-08T18:03:54.198Z,55.10
2023-02-08T18:06:20.666Z,55.00
2023-02-08T18:08:47.154Z,55.00
2023-02-08T18:11:13.628Z,55.20
2023-02-08T18:13:40.107Z,54.80
2023-02-08T18:16:06.598Z,54.90
2023-02-08T18:18:33.111Z,55.10
2023-02-08T18:20:59.587Z,55.00
2023-02-08T18:23:26.370Z,55.00
2023-02-08T18:25:52.887Z,54.90
2023-02-08T18:28:19.431Z,54.80
2023-02-08T18:30:45.952Z,54.90
2023-02-08T18:33:12.455Z,55.00
2023-02-08T18:35:38.906Z,54.90
2023-02-08T18:38:05.375Z,55.00
2023-02-08T18:40:32.336Z,54.80
2023-02-08T18:42:58.885Z,54.90
2023-02-08T18:45:25.370Z,54.80
2023-02-08T18:47:51.846Z,54.90
2023-02-08T18:50:18.306Z,54.80
2023-02-08T18:52:44.790Z,54.60
2023-02-08T18:55:11.262Z,54.50
2023-02-08T18:57:37.729Z,54.60
2023-02-08T19:00:04.225Z,54.60
2023-02-08T19:02:30.712Z,54.60
2023-02-08T19:04:57.211Z,54.50
2023-02-08T19:07:23.687Z,54.50
2023-02-08T19:09:50.193Z,54.50
2023-02-08T19:12:16.658Z,54.30
2023-02-08T19:14:43.181Z,54.40
2023-02-08T19:17:09.652Z,54.40
2023-02-08T19:19:36.144Z,54.50
2023-02-08T19:22:02.632Z,54.10
2023-02-08T19:24:29.141Z,54.40
2023-02-08T19:26:55.616Z,54.00
2023-02-08T19:29:22.109Z,54.10
2023-02-08T19:31:50.224Z,54.20
2023-02-08T19:34:16.929Z,54.00
2023-02-08T19:36:43.409Z,53.90
2023-02-08T19:39:09.905Z,53.80
2023-02-08T19:41:36.402Z,53.70
2023-02-08T19:44:02.878Z,52.70
2023-02-08T19:46:29.353Z,51.70
2023-02-08T19:48:55.818Z,51.90
2023-02-08T19:51:22.287Z,52.00
2023-02-08T19:53:48.757Z,51.20
2023-02-08T19:56:15.246Z,51.60
2023-02-08T19:58:41.701Z,51.50
2023-02-08T20:01:08.231Z,51.20
2023-02-08T20:03:34.763Z,51.20
2023-02-08T20:06:01.252Z,51.20
2023-02-08T20:08:27.738Z,51.30
2023-02-08T20:10:54.231Z,51.20
2023-02-08T20:13:20.741Z,51.40
2023-02-08T20:15:47.236Z,51.20
2023-02-08T20:18:13.723Z,51.10
2023-02-08T20:20:40.194Z,51.00
2023-02-08T20:23:14.051Z,51.00
2023-02-08T20:25:44.272Z,50.90
2023-02-08T20:28:10.982Z,50.80
2023-02-08T20:30:37.492Z,50.90
2023-02-08T20:33:03.999Z,50.90
2023-02-08T20:35:30.423Z,50.80
2023-02-08T20:37:56.893Z,50.80
2023-02-08T20:40:23.367Z,50.70
2023-02-08T20:42:49.839Z,50.70
2023-02-08T20:45:16.321Z,50.40
2023-02-08T20:47:46.609Z,50.60
2023-02-08T20:50:18.780Z,50.70
2023-02-08T20:52:45.911Z,50.60
2023-02-08T20:55:12.386Z,50.60
2023-02-08T20:57:38.861Z,50.40
2023-02-08T21:00:05.360Z,50.30
2023-02-08T21:02:31.929Z,50.20
2023-02-08T21:04:58.450Z,50.30
2023-02-08T21:07:24.940Z,50.30
2023-02-08T21:09:51.423Z,50.10
2023-02-08T21:12:18.081Z,50.10
2023-02-08T21:14:48.213Z,50.20
2023-02-08T21:17:14.693Z,49.90
2023-02-08T21:19:41.160Z,50.20
2023-02-08T21:22:07.635Z,50.20
2023-02-08T21:24:34.094Z,50.30
2023-02-08T21:27:00.568Z,50.20
2023-02-08T21:29:27.046Z,50.10
2023-02-08T21:31:53.644Z,50.20
2023-02-08T21:34:20.314Z,50.00
2023-02-08T21:36:47.020Z,50.10
2023-02-08T21:39:13.489Z,50.10
2023-02-08T21:41:39.952Z,50.20
2023-02-08T21:44:06.429Z,50.10
2023-02-08T21:46:33.039Z,50.10
2023-02-08T21:48:59.600Z,50.10
2023-02-08T21:51:26.067Z,50.10
2023-02-08T21:53:52.555Z,50.00
2023-02-08T21:56:19.043Z,49.90
2023-02-08T21:58:45.520Z,50.00
2023-02-08T22:01:11.990Z,50.00
2023-02-08T22:03:38.516Z,50.10
2023-02-08T22:06:04.999Z,50.10
2023-02-08T22:08:31.483Z,50.10
2023-02-08T22:10:58.795Z,50.10
2023-02-08T22:13:25.350Z,50.20
2023-02-08T22:15:51.869Z,50.00
2023-02-08T22:18:18.394Z,50.00
2023-02-08T22:20:45.125Z,50.10
2023-02-08T22:23:11.793Z,50.10
2023-02-08T22:25:38.269Z,50.10
2023-02-08T22:28:04.738Z,50.10
2023-02-08T22:30:31.291Z,49.80
2023-02-08T22:32:57.777Z,50.00
2023-02-08T22:35:24.264Z,49.80
2023-02-08T22:37:50.821Z,49.80
2023-02-08T22:40:17.324Z,49.80
2023-02-08T22:42:43.817Z,49.80
2023-02-08T22:45:10.282Z,49.70
2023-02-08T22:47:36.755Z,49.80
2023-02-08T22:50:03.236Z,49.80
2023-02-08T22:52:29.725Z,49.70
2023-02-08T22:54:56.201Z,49.80
2023-02-08T22:57:22.677Z,49.70
2023-02-08T22:59:49.175Z,49.70
2023-02-08T23:02:15.659Z,49.70
2023-02-08T23:04:42.184Z,49.60
2023-02-08T23:07:08.681Z,49.70
2023-02-08T23:09:35.139Z,49.60
2023-02-08T23:12:01.621Z,49.50
2023-02-08T23:14:28.071Z,49.50
2023-02-08T23:16:54.560Z,49.60
2023-02-08T23:19:21.023Z,49.60
2023-02-08T23:21:47.528Z,49.50
2023-02-08T23:24:14.026Z,49.60
2023-02-08T23:26:40.561Z,49.60
2023-02-08T23:29:07.038Z,49.60
2023-02-08T23:31:33.613Z,49.50
2023-02-08T23:34:00.150Z,49.50
2023-02-08T23:36:30.151Z,49.50
2023-02-08T23:38:56.602Z,49.20
2023-02-08T23:41:23.151Z,49.30
2023-02-08T23:43:49.651Z,49.30
2023-02-08T23:46:16.152Z,49.30
2023-02-08T23:48:42.614Z,49.40
2023-02-08T23:51:09.114Z,49.30
2023-02-08T23:53:35.580Z,49.40
2023-02-08T23:56:02.082Z,49.10
2023-02-08T23:58:28.564Z,49.00
